createdAt,value
2019-04-03T00:00:40.163Z,7.60
2019-04-03T00:03:08.713Z,7.40
2019-04-03T00:05:37.170Z,7.30
2019-04-03T00:08:06.401Z,7.20
2019-04-03T00:10:35.958Z,7.20
2019-04-03T00:13:06.202Z,7.30
2019-04-03T00:15:34.726Z,7.40
2019-04-03T00:18:03.189Z,7.40
2019-04-03T00:20:31.717Z,7.40
2019-04-03T00:23:00.221Z,7.40
2019-04-03T00:25:28.682Z,7.40
2019-04-03T00:27:57.211Z,7.50
2019-04-03T00:30:25.835Z,7.60
2019-04-03T00:32:54.520Z,7.70
2019-04-03T00:35:23.527Z,7.70
2019-04-03T00:37:53.752Z,7.70
2019-04-03T00:40:22.749Z,7.70
2019-04-03T00:42:54.102Z,7.70
2019-04-03T00:45:24.464Z,7.70
2019-04-03T00:47:55.372Z,7.80
2019-04-03T00:50:23.081Z,7.70
2019-04-03T00:52:51.571Z,7.70
2019-04-03T00:55:20.038Z,7.70
2019-04-03T00:57:48.612Z,7.60
2019-04-03T01:00:17.397Z,7.50
2019-04-03T01:02:45.821Z,7.40
2019-04-03T01:05:14.472Z,7.30
2019-04-03T01:07:43.046Z,7.30
2019-04-03T01:10:12.041Z,7.30
2019-04-03T01:12:40.473Z,7.30
2019-04-03T01:15:09.289Z,7.30
2019-04-03T01:17:37.851Z,7.30
2019-04-03T01:20:06.955Z,7.30
2019-04-03T01:22:37.097Z,7.30
2019-04-03T01:25:25.054Z,7.30
2019-04-03T01:27:53.535Z,7.30
2019-04-03T01:30:21.987Z,7.30
2019-04-03T01:32:50.478Z,7.20
2019-04-03T01:35:18.970Z,7.10
2019-04-03T01:37:49.271Z,7.10
2019-04-03T01:40:20.099Z,7.00
2019-04-03T01:42:47.841Z,7.00
2019-04-03T01:45:16.318Z,7.00
2019-04-03T01:47:44.774Z,7.00
2019-04-03T01:50:13.533Z,7.00
2019-04-03T01:52:41.985Z,6.90
2019-04-03T01:55:10.550Z,6.80
2019-04-03T01:57:39.051Z,6.80
2019-04-03T02:00:08.774Z,6.80
2019-04-03T02:02:38.674Z,6.80
2019-04-03T02:05:08.249Z,6.80
2019-04-03T02:07:36.681Z,6.80
2019-04-03T02:10:12.242Z,6.80
2019-04-03T02:12:40.771Z,6.80
2019-04-03T02:15:09.319Z,6.80
2019-04-03T02:17:37.831Z,6.70
2019-04-03T02:20:06.532Z,6.70
2019-04-03T02:22:34.981Z,6.70
2019-04-03T02:25:04.684Z,6.60
2019-04-03T02:27:33.282Z,6.60
2019-04-03T02:30:02.461Z,6.60
2019-04-03T02:32:31.003Z,6.50
2019-04-03T02:34:59.538Z,6.50
2019-04-03T02:37:27.966Z,6.40
2019-04-03T02:39:59.048Z,6.40
2019-04-03T02:42:26.626Z,6.40
2019-04-03T02:44:55.294Z,6.40
2019-04-03T02:47:23.855Z,6.40
2019-04-03T02:49:52.432Z,6.40
2019-04-03T02:52:24.158Z,6.30
2019-04-03T02:54:51.674Z,6.30
2019-04-03T02:57:20.148Z,6.30
2019-04-03T02:59:48.958Z,6.20
2019-04-03T03:02:17.385Z,6.10
2019-04-03T03:04:46.060Z,6.00
2019-04-03T03:07:15.063Z,5.90
2019-04-03T03:09:46.599Z,5.90
2019-04-03T03:12:15.851Z,5.90
2019-04-03T03:14:44.476Z,5.80
2019-04-03T03:17:13.233Z,5.70
2019-04-03T03:19:42.139Z,5.80
2019-04-03T03:22:11.600Z,5.80
2019-04-03T03:24:40.152Z,5.80
2019-04-03T03:27:10.119Z,5.70
2019-04-03T03:29:39.424Z,5.60
2019-04-03T03:32:18.308Z,5.60
2019-04-03T03:34:55.471Z,5.50
2019-04-03T03:37:12.260Z,5.50
2019-04-03T03:39:42.681Z,5.50
2019-04-03T03:42:10.681Z,5.50
2019-04-03T03:44:43.222Z,5.50
2019-04-03T03:47:10.874Z,5.50
2019-04-03T03:49:41.115Z,5.50
2019-04-03T03:52:10.462Z,5.40
2019-04-03T03:54:39.545Z,5.50
2019-04-03T03:57:08.414Z,5.40
2019-04-03T03:59:37.715Z,5.40
2019-04-03T04:02:06.622Z,5.40
2019-04-03T04:04:35.336Z,5.40
2019-04-03T04:07:04.616Z,5.40
2019-04-03T04:09:33.656Z,5.40
2019-04-03T04:12:06.099Z,5.50
2019-04-03T04:14:32.958Z,5.50
2019-04-03T04:17:01.682Z,5.60
2019-04-03T04:19:31.088Z,5.40
2019-04-03T04:22:00.887Z,5.30
2019-04-03T04:24:29.417Z,5.10
2019-04-03T04:26:57.911Z,5.00
2019-04-03T04:29:26.415Z,5.00
2019-04-03T04:31:54.866Z,4.90
2019-04-03T04:34:23.352Z,4.90
2019-04-03T04:36:53.084Z,4.90
2019-04-03T04:39:22.006Z,4.80
2019-04-03T04:41:50.429Z,4.70
2019-04-03T04:44:19.018Z,4.70
2019-04-03T04:46:47.543Z,4.60
2019-04-03T04:49:16.065Z,4.60
2019-04-03T04:51:44.587Z,4.70
2019-04-03T04:54:13.082Z,4.70
2019-04-03T04:56:41.697Z,4.70
2019-04-03T04:59:11.780Z,4.70
2019-04-03T05:01:40.509Z,4.70
2019-04-03T05:04:08.999Z,4.70
2019-04-03T05:06:38.114Z,4.80
2019-04-03T05:09:07.213Z,4.90
2019-04-03T05:11:36.840Z,4.90
2019-04-03T05:14:05.901Z,4.80
2019-04-03T05:16:34.528Z,4.70
2019-04-03T05:19:09.492Z,4.70
2019-04-03T05:21:33.285Z,4.70
2019-04-03T05:24:11.544Z,4.80
2019-04-03T05:26:32.765Z,4.90
2019-04-03T05:29:01.247Z,5.00
2019-04-03T05:31:29.789Z,5.30
2019-04-03T05:33:58.266Z,5.50
2019-04-03T05:36:27.020Z,5.80
2019-04-03T05:38:55.614Z,6.00
2019-04-03T05:41:24.161Z,6.30
2019-04-03T05:43:52.686Z,6.40
2019-04-03T05:46:21.221Z,6.70
2019-04-03T05:48:50.009Z,7.10
2019-04-03T05:51:20.763Z,7.30
2019-04-03T05:53:49.256Z,7.50
2019-04-03T05:56:17.709Z,7.70
2019-04-03T05:58:55.570Z,7.50
2019-04-03T06:01:16.532Z,7.40
2019-04-03T06:03:45.810Z,7.30
2019-04-03T06:06:15.458Z,7.30
2019-04-03T06:08:44.185Z,7.30
2019-04-03T06:11:12.670Z,7.40
2019-04-03T06:13:41.171Z,7.60
2019-04-03T06:16:09.658Z,7.70
2019-04-03T06:18:38.123Z,7.90
2019-04-03T06:21:06.577Z,8.20
2019-04-03T06:23:35.012Z,8.20
2019-04-03T06:26:03.517Z,8.30
2019-04-03T06:28:32.011Z,8.30
2019-04-03T06:31:01.175Z,8.10
2019-04-03T06:33:31.486Z,8.00
2019-04-03T06:35:59.836Z,8.00
2019-04-03T06:38:28.331Z,7.90
2019-04-03T06:40:56.830Z,7.60
2019-04-03T06:43:25.288Z,7.40
2019-04-03T06:45:55.296Z,7.40
2019-04-03T06:48:23.914Z,7.60
2019-04-03T06:50:52.494Z,7.70
2019-04-03T06:53:23.931Z,7.90
2019-04-03T06:55:51.183Z,8.00
2019-04-03T06:58:19.663Z,8.20
2019-04-03T07:00:48.108Z,8.40
2019-04-03T07:03:16.601Z,8.60
2019-04-03T07:05:45.207Z,8.90
2019-04-03T07:08:13.665Z,9.20
2019-04-03T07:10:54.221Z,9.60
2019-04-03T07:13:14.977Z,9.90
2019-04-03T07:15:43.012Z,10.30
2019-04-03T07:18:11.532Z,10.60
2019-04-03T07:20:40.026Z,10.90
2019-04-03T07:23:08.493Z,11.40
2019-04-03T07:25:36.933Z,11.70
2019-04-03T07:28:08.584Z,11.70
2019-04-03T07:30:35.780Z,11.50
2019-04-03T07:33:05.783Z,11.50
2019-04-03T07:35:34.521Z,11.50
2019-04-03T07:38:03.019Z,11.60
2019-04-03T07:40:31.503Z,11.70
2019-04-03T07:43:02.517Z,11.80
2019-04-03T07:45:32.778Z,12.00
2019-04-03T07:48:02.265Z,11.90
2019-04-03T07:50:30.792Z,11.90
2019-04-03T07:52:59.281Z,12.00
2019-04-03T07:55:28.521Z,12.10
2019-04-03T07:57:59.498Z,12.00
2019-04-03T08:00:27.611Z,11.90
2019-04-03T08:02:56.076Z,12.10
2019-04-03T08:05:24.613Z,12.20
2019-04-03T08:07:53.091Z,12.30
2019-04-03T08:10:21.828Z,12.30
2019-04-03T08:12:50.738Z,12.20
2019-04-03T08:15:19.312Z,12.30
2019-04-03T08:17:49.703Z,12.30
2019-04-03T08:20:19.582Z,12.40
2019-04-03T08:22:48.345Z,12.40
2019-04-03T08:25:16.906Z,12.40
2019-04-03T08:27:45.379Z,12.40
2019-04-03T08:30:14.644Z,12.30
2019-04-03T08:32:43.161Z,12.30
2019-04-03T08:35:20.828Z,12.30
2019-04-03T08:37:42.338Z,12.50
2019-04-03T08:40:11.087Z,12.60
2019-04-03T08:42:39.615Z,12.50
2019-04-03T08:45:11.869Z,12.50
2019-04-03T08:47:40.523Z,12.60
2019-04-03T08:50:10.531Z,12.60
2019-04-03T08:52:39.648Z,12.60
2019-04-03T08:55:09.272Z,12.80
2019-04-03T08:57:37.756Z,12.90
2019-04-03T09:00:11.218Z,13.10
2019-04-03T09:02:42.645Z,13.20
2019-04-03T09:05:13.202Z,13.40
2019-04-03T09:07:40.424Z,13.50
2019-04-03T09:10:09.896Z,13.50
2019-04-03T09:12:38.918Z,13.50
2019-04-03T09:15:08.146Z,13.50
2019-04-03T09:17:36.693Z,13.60
2019-04-03T09:20:06.065Z,13.80
2019-04-03T09:22:34.626Z,14.00
2019-04-03T09:25:04.186Z,14.30
2019-04-03T09:27:32.678Z,14.70
2019-04-03T09:30:01.794Z,15.00
2019-04-03T09:32:30.315Z,15.20
2019-04-03T09:34:59.060Z,15.30
2019-04-03T09:37:29.042Z,15.40
2019-04-03T09:39:57.506Z,15.50
2019-04-03T09:42:25.990Z,15.50
2019-04-03T09:44:56.226Z,15.30
2019-04-03T09:47:24.655Z,15.20
2019-04-03T09:49:53.269Z,15.20
2019-04-03T09:52:23.597Z,15.00
2019-04-03T09:54:51.895Z,15.10
2019-04-03T09:57:20.366Z,15.20
2019-04-03T09:59:48.818Z,15.40
2019-04-03T10:02:19.564Z,15.60
2019-04-03T10:04:47.873Z,15.70
2019-04-03T10:07:16.478Z,15.70
2019-04-03T10:09:44.995Z,15.50
2019-04-03T10:12:13.637Z,15.10
2019-04-03T10:14:42.213Z,15.10
2019-04-03T10:17:10.686Z,14.90
2019-04-03T10:19:39.163Z,15.00
2019-04-03T10:22:07.605Z,15.20
2019-04-03T10:24:36.456Z,15.30
2019-04-03T10:27:05.171Z,15.00
2019-04-03T10:29:33.614Z,14.70
2019-04-03T10:32:02.185Z,14.60
2019-04-03T10:34:30.719Z,14.50
2019-04-03T10:36:59.244Z,14.70
2019-04-03T10:39:27.694Z,14.90
2019-04-03T10:41:56.190Z,15.00
2019-04-03T10:44:24.647Z,15.30
2019-04-03T10:46:53.371Z,15.50
2019-04-03T10:49:21.936Z,15.70
2019-04-03T10:51:50.643Z,15.80
2019-04-03T10:54:19.212Z,16.00
2019-04-03T10:56:47.788Z,16.20
2019-04-03T10:59:18.462Z,15.90
2019-04-03T11:01:46.783Z,15.80
2019-04-03T11:04:15.217Z,15.80
2019-04-03T11:06:43.687Z,15.90
2019-04-03T11:09:12.267Z,16.10
2019-04-03T11:11:42.943Z,16.20
2019-04-03T11:14:10.976Z,16.40
2019-04-03T11:16:39.546Z,16.30
2019-04-03T11:19:08.129Z,16.20
2019-04-03T11:21:36.587Z,16.20
2019-04-03T11:24:06.686Z,16.30
2019-04-03T11:26:35.313Z,16.40
2019-04-03T11:29:03.953Z,16.60
2019-04-03T11:31:36.073Z,16.60
2019-04-03T11:34:03.899Z,16.60
2019-04-03T11:36:32.660Z,16.60
2019-04-03T11:39:11.328Z,16.40
2019-04-03T11:41:31.359Z,16.20
2019-04-03T11:44:01.265Z,16.10
2019-04-03T11:46:29.841Z,16.00
2019-04-03T11:48:58.331Z,15.90
2019-04-03T11:51:28.912Z,15.80
2019-04-03T11:53:56.978Z,15.80
2019-04-03T11:56:25.464Z,16.00
2019-04-03T11:58:54.278Z,16.00
2019-04-03T12:01:23.002Z,16.00
2019-04-03T12:03:51.658Z,15.80
2019-04-03T12:06:21.098Z,15.90
2019-04-03T12:08:49.680Z,15.80
2019-04-03T12:11:18.275Z,15.90
2019-04-03T12:13:46.765Z,16.10
2019-04-03T12:16:15.302Z,16.10
2019-04-03T12:18:43.937Z,16.10
2019-04-03T12:21:14.122Z,16.10
2019-04-03T12:23:42.611Z,15.90
2019-04-03T12:26:11.801Z,15.80
2019-04-03T12:28:40.927Z,15.80
2019-04-03T12:31:09.481Z,15.80
2019-04-03T12:33:38.002Z,15.80
2019-04-03T12:36:07.338Z,15.70
2019-04-03T12:38:35.946Z,15.70
2019-04-03T12:41:05.385Z,15.70
2019-04-03T12:43:34.370Z,15.80
2019-04-03T12:46:03.277Z,15.90
2019-04-03T12:48:32.201Z,16.00
2019-04-03T12:51:01.113Z,16.00
2019-04-03T12:53:29.657Z,16.00
2019-04-03T12:55:58.436Z,16.10
2019-04-03T12:58:27.025Z,16.00
2019-04-03T13:00:55.494Z,16.10
2019-04-03T13:03:25.687Z,16.10
2019-04-03T13:05:54.174Z,16.30
2019-04-03T13:08:23.017Z,16.50
2019-04-03T13:10:51.587Z,16.60
2019-04-03T13:13:20.484Z,16.70
2019-04-03T13:15:49.389Z,16.70
2019-04-03T13:18:18.195Z,16.70
2019-04-03T13:20:46.653Z,16.80
2019-04-03T13:23:15.591Z,16.90
2019-04-03T13:25:44.241Z,17.00
2019-04-03T13:28:12.776Z,17.00
2019-04-03T13:30:43.292Z,17.00
2019-04-03T13:33:11.426Z,17.10
2019-04-03T13:35:39.955Z,17.00
2019-04-03T13:38:08.475Z,17.10
2019-04-03T13:40:38.439Z,17.20
2019-04-03T13:43:07.274Z,17.30
2019-04-03T13:45:35.758Z,17.30
2019-04-03T13:48:04.520Z,17.30
2019-04-03T13:50:38.152Z,17.50
2019-04-03T13:53:06.673Z,17.50
2019-04-03T13:55:37.672Z,17.60
2019-04-03T13:58:05.749Z,17.60
2019-04-03T14:00:34.946Z,17.60
2019-04-03T14:03:03.827Z,17.80
2019-04-03T14:05:33.257Z,17.90
2019-04-03T14:08:04.550Z,18.00
2019-04-03T14:10:32.895Z,17.80
2019-04-03T14:13:01.525Z,17.70
2019-04-03T14:15:30.021Z,17.60
2019-04-03T14:17:59.235Z,17.50
2019-04-03T14:20:28.653Z,17.30
2019-04-03T14:22:57.572Z,17.20
2019-04-03T14:25:31.403Z,17.00
2019-04-03T14:27:56.489Z,17.00
2019-04-03T14:30:25.087Z,17.00
2019-04-03T14:32:54.626Z,16.90
2019-04-03T14:35:45.453Z,16.90
2019-04-03T14:37:53.757Z,16.80
2019-04-03T14:40:22.209Z,16.90
2019-04-03T14:42:51.756Z,16.90
2019-04-03T14:45:21.056Z,16.90
2019-04-03T14:47:49.701Z,17.00
2019-04-03T14:50:18.237Z,17.00
2019-04-03T14:52:48.725Z,17.10
2019-04-03T14:55:20.802Z,17.20
2019-04-03T14:57:47.145Z,17.30
2019-04-03T15:00:26.042Z,17.30
2019-04-03T15:02:46.522Z,17.40
2019-04-03T15:05:15.181Z,17.30
2019-04-03T15:07:43.669Z,17.10
2019-04-03T15:10:12.783Z,17.10
2019-04-03T15:12:41.288Z,17.00
2019-04-03T15:15:10.232Z,16.80
2019-04-03T15:17:39.050Z,16.70
2019-04-03T15:20:09.587Z,16.70
2019-04-03T15:22:38.325Z,16.60
2019-04-03T15:25:07.533Z,16.50
2019-04-03T15:27:36.983Z,16.40
2019-04-03T15:30:12.129Z,16.30
2019-04-03T15:32:41.261Z,16.20
2019-04-03T15:35:10.307Z,16.10
2019-04-03T15:37:41.465Z,16.10
2019-04-03T15:40:09.376Z,16.00
2019-04-03T15:42:39.857Z,15.90
2019-04-03T15:45:09.035Z,15.90
2019-04-03T15:47:41.608Z,15.90
2019-04-03T15:50:08.581Z,16.00
2019-04-03T15:52:37.162Z,16.00
2019-04-03T15:55:08.388Z,15.90
2019-04-03T15:57:39.780Z,15.90
2019-04-03T16:00:16.131Z,15.80
2019-04-03T16:02:46.362Z,15.50
2019-04-03T16:05:15.574Z,15.20
2019-04-03T16:07:44.133Z,15.20
2019-04-03T16:10:13.077Z,15.20
2019-04-03T16:12:43.256Z,15.20
2019-04-03T16:15:11.952Z,15.30
2019-04-03T16:17:40.407Z,15.30
2019-04-03T16:20:09.598Z,15.30
2019-04-03T16:22:38.300Z,15.30
2019-04-03T16:25:08.181Z,15.30
2019-04-03T16:27:36.712Z,15.30
2019-04-03T16:30:09.764Z,15.40
2019-04-03T16:32:38.942Z,15.40
2019-04-03T16:35:08.730Z,15.40
2019-04-03T16:37:37.611Z,15.40
2019-04-03T16:40:08.013Z,15.30
2019-04-03T16:42:37.071Z,15.10
2019-04-03T16:45:10.582Z,15.00
2019-04-03T16:47:39.292Z,15.00
2019-04-03T16:50:08.745Z,14.90
2019-04-03T16:52:38.125Z,14.80
2019-04-03T16:55:07.914Z,14.70
2019-04-03T16:57:37.058Z,14.60
2019-04-03T17:00:10.140Z,14.50
2019-04-03T17:02:39.024Z,14.30
2019-04-03T17:05:10.433Z,14.10
2019-04-03T17:07:38.542Z,14.00
2019-04-03T17:10:09.405Z,13.80
2019-04-03T17:12:37.835Z,13.70
2019-04-03T17:15:08.297Z,13.50
2019-04-03T17:17:37.054Z,13.50
2019-04-03T17:20:07.908Z,13.30
2019-04-03T17:22:38.992Z,13.20
2019-04-03T17:25:09.048Z,13.10
2019-04-03T17:27:37.792Z,13.00
2019-04-03T17:30:09.447Z,12.90
2019-04-03T17:32:38.855Z,12.70
2019-04-03T17:35:09.851Z,12.60
2019-04-03T17:37:38.575Z,12.50
2019-04-03T17:40:10.159Z,12.40
2019-04-03T17:42:39.338Z,12.20
2019-04-03T17:45:09.161Z,12.20
2019-04-03T17:47:37.755Z,12.10
2019-04-03T17:50:07.799Z,12.00
2019-04-03T17:52:37.019Z,11.90
2019-04-03T17:55:10.659Z,11.80
2019-04-03T17:57:39.689Z,11.70
2019-04-03T18:00:18.775Z,11.60
2019-04-03T18:02:47.333Z,11.50
2019-04-03T18:05:15.865Z,11.30
2019-04-03T18:07:44.336Z,11.10
2019-04-03T18:10:13.197Z,10.90
2019-04-03T18:12:41.862Z,10.70
2019-04-03T18:15:11.737Z,10.60
2019-04-03T18:17:40.319Z,10.60
2019-04-03T18:20:12.581Z,10.70
2019-04-03T18:22:39.467Z,10.70
2019-04-03T18:25:08.674Z,10.70
2019-04-03T18:27:37.445Z,10.50
2019-04-03T18:30:11.271Z,10.40
2019-04-03T18:32:38.558Z,10.30
2019-04-03T18:35:07.458Z,10.20
2019-04-03T18:37:36.099Z,10.20
2019-04-03T18:40:06.668Z,10.10
2019-04-03T18:42:35.114Z,9.90
2019-04-03T18:45:04.530Z,9.80
2019-04-03T18:47:40.905Z,9.70
2019-04-03T18:50:04.190Z,9.60
2019-04-03T18:52:32.765Z,9.60
2019-04-03T18:55:01.497Z,9.60
2019-04-03T18:57:29.964Z,9.60
2019-04-03T19:00:00.491Z,9.60
2019-04-03T19:02:28.730Z,9.50
2019-04-03T19:05:02.192Z,9.50
2019-04-03T19:07:27.446Z,9.40
2019-04-03T19:10:06.430Z,9.40
2019-04-03T19:12:35.378Z,9.30
2019-04-03T19:14:56.230Z,9.30
2019-04-03T19:17:25.375Z,9.20
2019-04-03T19:20:04.031Z,9.10
2019-04-03T19:22:25.872Z,9.00
2019-04-03T19:24:54.312Z,8.90
2019-04-03T19:27:22.856Z,8.80
2019-04-03T19:29:51.377Z,8.80
2019-04-03T19:32:19.840Z,8.80
2019-04-03T19:34:50.161Z,8.80
2019-04-03T19:37:18.661Z,8.80
2019-04-03T19:39:47.207Z,8.80
2019-04-03T19:42:15.664Z,8.80
2019-04-03T19:44:44.117Z,8.70
2019-04-03T19:47:12.571Z,8.60
2019-04-03T19:49:41.054Z,8.60
2019-04-03T19:52:09.608Z,8.50
2019-04-03T19:54:38.138Z,8.50
2019-04-03T19:57:06.674Z,8.50
2019-04-03T19:59:35.122Z,8.40
2019-04-03T20:02:03.633Z,8.50
2019-04-03T20:04:32.155Z,8.40
2019-04-03T20:07:00.585Z,8.40
2019-04-03T20:09:31.882Z,8.40
2019-04-03T20:11:59.350Z,8.40
2019-04-03T20:14:27.794Z,8.40
2019-04-03T20:16:58.398Z,8.50
2019-04-03T20:19:26.727Z,8.50
2019-04-03T20:21:55.920Z,8.60
2019-04-03T20:24:25.253Z,8.60
2019-04-03T20:26:54.036Z,8.60
2019-04-03T20:29:22.638Z,8.50
2019-04-03T20:31:51.150Z,8.50
2019-04-03T20:34:19.714Z,8.60
2019-04-03T20:36:51.032Z,8.60
2019-04-03T20:39:18.397Z,8.60
2019-04-03T20:41:46.969Z,8.60
2019-04-03T20:44:17.357Z,8.60
2019-04-03T20:46:45.633Z,8.60
2019-04-03T20:49:14.129Z,8.60
2019-04-03T20:51:42.617Z,8.80
2019-04-03T20:54:11.837Z,9.10
2019-04-03T20:56:40.608Z,9.50
2019-04-03T20:59:11.425Z,9.80
2019-04-03T21:01:39.458Z,10.00
2019-04-03T21:04:07.979Z,10.10
2019-04-03T21:06:37.402Z,10.00
2019-04-03T21:09:07.731Z,10.00
2019-04-03T21:11:36.298Z,10.00
2019-04-03T21:14:05.724Z,10.00
2019-04-03T21:16:34.574Z,9.90
2019-04-03T21:19:03.033Z,9.80
2019-04-03T21:21:31.539Z,9.70
2019-04-03T21:24:02.007Z,9.50
2019-04-03T21:26:31.128Z,9.40
2019-04-03T21:29:00.323Z,9.30
2019-04-03T21:31:28.823Z,9.20
2019-04-03T21:33:58.063Z,9.10
2019-04-03T21:36:26.543Z,9.00
2019-04-03T21:38:55.087Z,8.90
2019-04-03T21:41:23.555Z,8.70
2019-04-03T21:43:51.985Z,8.70
2019-04-03T21:46:20.495Z,8.60
2019-04-03T21:48:48.938Z,8.60
2019-04-03T21:51:20.529Z,8.60
2019-04-03T21:53:47.594Z,8.60
2019-04-03T21:56:16.099Z,8.60
2019-04-03T21:58:44.569Z,8.60
2019-04-03T22:01:17.602Z,8.70
2019-04-03T22:03:46.195Z,8.80
2019-04-03T22:06:14.742Z,8.80
2019-04-03T22:08:43.295Z,8.80
2019-04-03T22:11:11.827Z,8.60
2019-04-03T22:13:40.417Z,8.70
2019-04-03T22:16:08.873Z,8.60
2019-04-03T22:18:37.447Z,8.70
2019-04-03T22:21:05.940Z,8.80
2019-04-03T22:23:35.908Z,8.70
2019-04-03T22:26:05.072Z,8.60
2019-04-03T22:28:33.539Z,8.60
2019-04-03T22:31:02.019Z,8.60
2019-04-03T22:33:30.589Z,8.60
2019-04-03T22:36:03.367Z,8.70
2019-04-03T22:38:31.701Z,8.70
2019-04-03T22:41:00.249Z,8.60
2019-04-03T22:43:30.979Z,8.60
2019-04-03T22:46:00.689Z,8.50
2019-04-03T22:48:29.193Z,8.50
2019-04-03T22:50:57.709Z,8.30
2019-04-03T22:53:26.163Z,8.20
2019-04-03T22:55:54.672Z,8.10
2019-04-03T22:58:23.162Z,8.00
2019-04-03T23:00:51.663Z,7.90
2019-04-03T23:03:20.190Z,7.70
2019-04-03T23:05:48.657Z,7.70
2019-04-03T23:08:17.211Z,7.60
2019-04-03T23:10:45.671Z,7.50
2019-04-03T23:13:14.171Z,7.40
2019-04-03T23:15:42.683Z,7.40
2019-04-03T23:18:11.188Z,7.40
2019-04-03T23:20:39.754Z,7.30
2019-04-03T23:23:08.303Z,7.30
2019-04-03T23:25:36.778Z,7.20
2019-04-03T23:28:05.334Z,7.20
2019-04-03T23:30:33.778Z,7.30
2019-04-03T23:33:02.266Z,7.20
2019-04-03T23:35:30.766Z,7.20
2019-04-03T23:37:59.279Z,7.20
2019-04-03T23:40:27.784Z,7.20
2019-04-03T23:42:56.341Z,7.30
2019-04-03T23:45:26.512Z,7.40
2019-04-03T23:47:55.029Z,7.40
2019-04-03T23:50:23.489Z,7.50
2019-04-03T23:52:51.964Z,7.50
2019-04-03T23:55:20.489Z,7.60
2019-04-03T23:57:49.008Z,7.60
